createdAt,value
2022-08-24T00:02:18.382Z,89.68
2022-08-24T00:04:47.053Z,89.92
2022-08-24T00:07:25.518Z,89.73
2022-08-24T00:09:54.082Z,90.16
2022-08-24T00:12:20.394Z,90.59
2022-08-24T00:14:46.696Z,89.84
2022-08-24T00:17:15.633Z,89.79
2022-08-24T00:19:42.397Z,90.01
2022-08-24T00:22:09.327Z,89.98
2022-08-24T00:24:35.555Z,90.57
2022-08-24T00:27:01.874Z,89.97
2022-08-24T00:29:28.171Z,89.64
2022-08-24T00:31:54.546Z,89.35
2022-08-24T00:34:20.960Z,89.11
2022-08-24T00:36:47.306Z,88.99
2022-08-24T00:39:13.603Z,88.33
2022-08-24T00:41:39.931Z,88.41
2022-08-24T00:44:06.241Z,88.29
2022-08-24T00:46:32.560Z,88.30
2022-08-24T00:48:59.468Z,88.83
2022-08-24T00:51:25.787Z,88.64
2022-08-24T00:53:52.224Z,89.73
2022-08-24T00:56:18.525Z,88.94
2022-08-24T00:58:44.819Z,88.96
2022-08-24T01:01:12.397Z,89.00
2022-08-24T01:03:38.760Z,88.26
2022-08-24T01:06:05.084Z,88.21
2022-08-24T01:08:31.397Z,88.54
2022-08-24T01:10:57.721Z,88.51
2022-08-24T01:13:25.268Z,88.31
2022-08-24T01:15:51.606Z,88.77
2022-08-24T01:18:36.453Z,88.88
2022-08-24T01:21:02.759Z,89.65
2022-08-24T01:23:36.219Z,89.38
2022-08-24T01:26:03.200Z,88.95
2022-08-24T01:28:30.148Z,89.40
2022-08-24T01:30:58.528Z,89.43
2022-08-24T01:33:24.791Z,89.12
2022-08-24T01:35:51.092Z,89.51
2022-08-24T01:38:17.394Z,89.08
2022-08-24T01:40:43.692Z,89.31
2022-08-24T01:43:09.975Z,90.07
2022-08-24T01:45:36.289Z,90.21
2022-08-24T01:48:03.042Z,90.31
2022-08-24T01:50:29.488Z,89.83
2022-08-24T01:53:04.824Z,89.68
2022-08-24T01:55:40.892Z,89.72
2022-08-24T01:58:07.203Z,89.60
2022-08-24T02:00:33.516Z,89.88
2022-08-24T02:02:59.959Z,89.92
2022-08-24T02:05:26.345Z,90.05
2022-08-24T02:07:52.663Z,90.40
2022-08-24T02:10:18.985Z,90.77
2022-08-24T02:12:45.307Z,89.87
2022-08-24T02:15:11.619Z,89.82
2022-08-24T02:17:37.950Z,89.73
2022-08-24T02:20:04.270Z,90.25
2022-08-24T02:22:30.561Z,89.92
2022-08-24T02:24:56.895Z,91.19
2022-08-24T02:27:23.183Z,91.43
2022-08-24T02:29:49.484Z,90.91
2022-08-24T02:32:15.931Z,90.55
2022-08-24T02:34:44.037Z,90.27
2022-08-24T02:37:10.333Z,90.18
2022-08-24T02:39:36.671Z,90.39
2022-08-24T02:42:02.964Z,90.30
2022-08-24T02:44:29.369Z,90.62
2022-08-24T02:46:55.670Z,90.20
2022-08-24T02:49:23.128Z,90.06
2022-08-24T02:51:49.432Z,89.60
2022-08-24T02:54:18.075Z,89.26
2022-08-24T02:56:44.785Z,89.25
2022-08-24T02:59:11.524Z,89.45
2022-08-24T03:01:37.885Z,89.28
2022-08-24T03:04:04.275Z,89.52
2022-08-24T03:06:30.571Z,89.54
2022-08-24T03:08:57.041Z,90.01
2022-08-24T03:11:27.030Z,90.07
2022-08-24T03:13:55.339Z,89.87
2022-08-24T03:16:21.654Z,89.75
2022-08-24T03:18:47.952Z,89.63
2022-08-24T03:21:14.945Z,89.91
2022-08-24T03:23:41.240Z,89.50
2022-08-24T03:26:07.555Z,89.81
2022-08-24T03:28:34.027Z,90.65
2022-08-24T03:31:00.438Z,90.60
2022-08-24T03:33:27.036Z,90.37
2022-08-24T03:35:53.376Z,90.41
2022-08-24T03:38:21.203Z,90.15
2022-08-24T03:40:47.495Z,91.02
2022-08-24T03:43:33.748Z,91.25
2022-08-24T03:46:01.792Z,91.68
2022-08-24T03:48:28.602Z,90.96
2022-08-24T03:50:54.909Z,90.76
2022-08-24T03:53:21.210Z,90.20
2022-08-24T03:55:47.552Z,90.05
2022-08-24T03:58:13.852Z,90.50
2022-08-24T04:00:42.588Z,90.20
2022-08-24T04:03:08.887Z,89.65
2022-08-24T04:05:35.321Z,90.02
2022-08-24T04:08:01.653Z,90.20
2022-08-24T04:10:28.700Z,90.00
2022-08-24T04:12:55.078Z,89.84
2022-08-24T04:15:24.403Z,89.59
2022-08-24T04:17:50.729Z,89.52
2022-08-24T04:20:17.036Z,89.74
2022-08-24T04:22:44.130Z,89.59
2022-08-24T04:25:12.105Z,89.73
2022-08-24T04:27:38.426Z,89.51
2022-08-24T04:30:04.849Z,89.28
2022-08-24T04:32:31.547Z,89.37
2022-08-24T04:34:59.132Z,88.87
2022-08-24T04:37:28.103Z,88.46
2022-08-24T04:39:55.682Z,88.58
2022-08-24T04:42:22.039Z,88.08
2022-08-24T04:44:48.335Z,87.42
2022-08-24T04:47:14.627Z,87.00
2022-08-24T04:49:40.936Z,86.42
2022-08-24T04:52:09.584Z,86.05
2022-08-24T04:54:35.903Z,85.81
2022-08-24T04:57:02.206Z,85.31
2022-08-24T04:59:28.497Z,84.00
2022-08-24T05:01:54.862Z,84.18
2022-08-24T05:04:21.200Z,83.77
2022-08-24T05:06:47.512Z,83.40
2022-08-24T05:09:19.564Z,82.47
2022-08-24T05:11:49.759Z,82.02
2022-08-24T05:14:16.582Z,81.78
2022-08-24T05:16:45.756Z,81.68
2022-08-24T05:19:19.549Z,81.32
2022-08-24T05:21:46.282Z,81.08
2022-08-24T05:24:12.576Z,81.29
2022-08-24T05:26:39.455Z,80.84
2022-08-24T05:29:06.342Z,80.46
2022-08-24T05:31:32.705Z,80.43
2022-08-24T05:33:59.058Z,80.26
2022-08-24T05:36:25.422Z,80.76
2022-08-24T05:38:51.828Z,80.64
2022-08-24T05:41:18.140Z,81.53
2022-08-24T05:43:44.508Z,80.84
2022-08-24T05:46:11.897Z,80.84
2022-08-24T05:48:38.317Z,80.78
2022-08-24T05:51:04.628Z,81.43
2022-08-24T05:53:31.720Z,81.35
2022-08-24T05:55:58.103Z,81.42
2022-08-24T05:58:30.874Z,80.84
2022-08-24T06:00:57.696Z,80.73
2022-08-24T06:03:24.009Z,80.43
2022-08-24T06:05:50.327Z,80.67
2022-08-24T06:08:16.643Z,79.95
2022-08-24T06:10:43.362Z,80.04
2022-08-24T06:13:09.687Z,81.00
2022-08-24T06:15:36.000Z,81.24
2022-08-24T06:18:02.322Z,80.47
2022-08-24T06:20:28.636Z,79.74
2022-08-24T06:22:54.949Z,79.64
2022-08-24T06:25:40.024Z,78.96
2022-08-24T06:28:06.333Z,79.38
2022-08-24T06:30:32.763Z,78.67
2022-08-24T06:32:59.063Z,79.18
2022-08-24T06:35:28.464Z,78.36
2022-08-24T06:37:55.715Z,77.83
2022-08-24T06:40:24.631Z,77.19
2022-08-24T06:42:51.058Z,78.32
2022-08-24T06:45:22.450Z,77.62
2022-08-24T06:47:48.752Z,77.26
2022-08-24T06:50:15.082Z,76.99
2022-08-24T06:52:41.391Z,77.27
2022-08-24T06:55:09.615Z,76.87
2022-08-24T06:57:35.919Z,76.05
2022-08-24T07:00:02.254Z,78.76
2022-08-24T07:02:28.644Z,79.14
2022-08-24T07:04:55.058Z,77.54
2022-08-24T07:07:21.602Z,76.73
2022-08-24T07:09:47.907Z,76.56
2022-08-24T07:12:14.218Z,75.87
2022-08-24T07:14:40.543Z,75.04
2022-08-24T07:17:06.851Z,76.04
2022-08-24T07:19:33.363Z,75.64
2022-08-24T07:21:59.668Z,75.80
2022-08-24T07:24:26.027Z,75.58
2022-08-24T07:26:52.892Z,75.74
2022-08-24T07:29:45.848Z,76.07
2022-08-24T07:32:05.658Z,75.89
2022-08-24T07:34:32.761Z,75.73
2022-08-24T07:37:00.426Z,75.39
2022-08-24T07:39:26.724Z,74.60
2022-08-24T07:44:39.313Z,75.43
2022-08-24T07:47:27.118Z,74.11
2022-08-24T07:49:51.915Z,75.56
2022-08-24T07:52:18.214Z,75.53
2022-08-24T07:54:44.529Z,75.58
2022-08-24T07:57:10.818Z,75.58
2022-08-24T07:59:37.118Z,74.76
2022-08-24T08:02:03.445Z,73.29
2022-08-24T08:04:29.755Z,73.16
2022-08-24T08:09:27.434Z,73.73
2022-08-24T08:11:53.733Z,73.76
2022-08-24T08:14:20.040Z,75.13
2022-08-24T08:16:46.792Z,73.78
2022-08-24T08:19:13.084Z,73.54
2022-08-24T08:21:57.975Z,74.19
2022-08-24T08:24:24.277Z,72.18
2022-08-24T08:26:51.051Z,73.49
2022-08-24T08:29:18.277Z,73.28
2022-08-24T08:31:44.573Z,72.44
2022-08-24T08:34:11.105Z,70.67
2022-08-24T08:36:39.593Z,72.40
2022-08-24T08:39:06.021Z,71.47
2022-08-24T08:41:32.329Z,72.01
2022-08-24T08:44:01.008Z,71.76
2022-08-24T08:46:27.360Z,73.75
2022-08-24T08:48:53.720Z,72.83
2022-08-24T08:51:20.061Z,73.96
2022-08-24T08:53:47.465Z,73.83
2022-08-24T08:56:13.982Z,73.57
2022-08-24T08:58:40.292Z,73.87
2022-08-24T09:01:13.485Z,72.96
2022-08-24T09:03:39.784Z,73.04
2022-08-24T09:06:06.114Z,72.21
2022-08-24T09:08:32.432Z,70.17
2022-08-24T09:10:58.724Z,70.49
2022-08-24T09:13:25.054Z,69.79
2022-08-24T09:15:51.379Z,69.00
2022-08-24T09:18:24.791Z,66.41
2022-08-24T09:20:51.137Z,65.01
2022-08-24T09:23:17.442Z,64.71
2022-08-24T09:25:43.744Z,64.45
2022-08-24T09:28:10.317Z,64.29
2022-08-24T09:30:36.867Z,64.34
2022-08-24T09:33:03.386Z,65.38
2022-08-24T09:35:31.822Z,65.48
2022-08-24T09:37:58.190Z,65.89
2022-08-24T09:40:24.598Z,66.24
2022-08-24T09:42:50.947Z,66.55
2022-08-24T09:45:17.245Z,67.21
2022-08-24T09:47:43.580Z,65.37
2022-08-24T09:50:09.919Z,66.19
2022-08-24T09:52:37.389Z,64.10
2022-08-24T09:55:04.824Z,62.99
2022-08-24T09:57:50.220Z,62.65
2022-08-24T10:00:17.660Z,62.56
2022-08-24T10:02:44.057Z,62.11
2022-08-24T10:05:10.667Z,62.66
2022-08-24T10:07:37.053Z,62.46
2022-08-24T10:10:03.420Z,63.36
2022-08-24T10:12:29.731Z,63.01
2022-08-24T10:14:56.295Z,62.00
2022-08-24T10:17:22.783Z,61.71
2022-08-24T10:19:49.200Z,61.77
2022-08-24T10:22:15.501Z,62.15
2022-08-24T10:24:43.507Z,61.34
2022-08-24T10:27:09.901Z,60.11
2022-08-24T10:29:36.927Z,59.38
2022-08-24T10:32:03.775Z,58.30
2022-08-24T10:34:30.180Z,60.83
2022-08-24T10:36:56.517Z,58.97
2022-08-24T10:39:41.207Z,58.41
2022-08-24T10:42:07.557Z,61.01
2022-08-24T10:44:37.030Z,61.49
2022-08-24T10:47:03.336Z,60.88
2022-08-24T10:49:30.415Z,60.28
2022-08-24T10:51:56.711Z,60.67
2022-08-24T10:54:23.184Z,60.21
2022-08-24T10:56:49.483Z,60.40
2022-08-24T10:59:15.781Z,60.53
2022-08-24T11:01:42.133Z,59.87
2022-08-24T11:04:08.676Z,60.34
2022-08-24T11:06:34.979Z,60.57
2022-08-24T11:09:01.281Z,59.78
2022-08-24T11:11:27.596Z,59.88
2022-08-24T11:13:53.936Z,59.84
2022-08-24T11:16:20.292Z,60.15
2022-08-24T11:18:46.645Z,60.76
2022-08-24T11:21:12.944Z,60.03
2022-08-24T11:23:39.265Z,60.64
2022-08-24T11:26:05.558Z,61.29
2022-08-24T11:28:32.038Z,62.33
2022-08-24T11:30:58.331Z,61.37
2022-08-24T11:33:24.648Z,62.50
2022-08-24T11:35:50.935Z,62.70
2022-08-24T11:38:17.340Z,62.82
2022-08-24T11:40:43.652Z,61.63
2022-08-24T11:43:09.966Z,62.11
2022-08-24T11:45:36.264Z,61.63
2022-08-24T11:48:03.525Z,60.78
2022-08-24T11:50:31.737Z,59.36
2022-08-24T11:52:58.070Z,57.97
2022-08-24T11:55:24.600Z,58.46
2022-08-24T11:57:50.965Z,58.07
2022-08-24T12:00:18.661Z,58.97
2022-08-24T12:02:45.220Z,59.51
2022-08-24T12:05:14.317Z,58.79
2022-08-24T12:07:42.920Z,59.88
2022-08-24T12:10:09.473Z,58.44
2022-08-24T12:12:35.779Z,59.73
2022-08-24T12:15:02.226Z,58.38
2022-08-24T12:17:28.534Z,59.13
2022-08-24T12:19:54.872Z,59.25
2022-08-24T12:22:21.247Z,57.25
2022-08-24T12:24:47.608Z,57.80
2022-08-24T12:27:14.013Z,58.22
2022-08-24T12:29:40.311Z,58.03
2022-08-24T12:32:06.688Z,57.57
2022-08-24T12:34:33.007Z,57.23
2022-08-24T12:36:59.318Z,57.81
2022-08-24T12:39:25.618Z,56.91
2022-08-24T12:41:51.919Z,57.39
2022-08-24T12:44:18.254Z,56.50
2022-08-24T12:46:44.827Z,56.51
2022-08-24T12:49:11.202Z,57.81
2022-08-24T12:51:37.517Z,57.09
2022-08-24T12:54:04.038Z,56.43
2022-08-24T12:56:30.351Z,56.16
2022-08-24T12:58:56.652Z,56.23
2022-08-24T13:01:25.593Z,55.97
2022-08-24T13:03:55.962Z,56.01
2022-08-24T13:06:25.735Z,55.70
2022-08-24T13:08:52.932Z,55.78
2022-08-24T13:11:19.234Z,55.32
2022-08-24T13:13:45.567Z,54.46
2022-08-24T13:16:11.961Z,54.52
2022-08-24T13:18:38.331Z,54.38
2022-08-24T13:21:04.643Z,54.38
2022-08-24T13:23:31.111Z,53.69
2022-08-24T13:25:57.446Z,54.06
2022-08-24T13:28:23.754Z,54.54
2022-08-24T13:30:50.127Z,54.13
2022-08-24T13:33:17.679Z,54.96
2022-08-24T13:35:43.971Z,55.51
2022-08-24T13:38:11.793Z,54.18
2022-08-24T13:40:38.450Z,53.98
2022-08-24T13:43:04.728Z,54.24
2022-08-24T13:45:31.517Z,53.71
2022-08-24T13:47:57.754Z,54.38
2022-08-24T13:50:24.111Z,54.29
2022-08-24T13:52:50.407Z,55.14
2022-08-24T13:55:16.742Z,55.52
2022-08-24T13:57:43.092Z,54.83
2022-08-24T14:00:09.394Z,55.02
2022-08-24T14:02:39.005Z,54.62
2022-08-24T14:05:05.332Z,54.76
2022-08-24T14:07:31.677Z,54.53
2022-08-24T14:09:58.741Z,54.77
2022-08-24T14:12:25.129Z,53.69
2022-08-24T14:14:51.437Z,54.76
2022-08-24T14:17:36.712Z,55.26
2022-08-24T14:20:03.409Z,53.52
2022-08-24T14:22:29.738Z,55.40
2022-08-24T14:24:56.040Z,54.61
2022-08-24T14:27:22.348Z,54.76
2022-08-24T14:29:48.780Z,55.57
2022-08-24T14:32:15.081Z,54.66
2022-08-24T14:34:41.744Z,54.50
2022-08-24T14:37:07.996Z,54.87
2022-08-24T14:39:34.298Z,54.25
2022-08-24T14:42:00.901Z,55.05
2022-08-24T14:44:27.201Z,55.38
2022-08-24T14:46:54.333Z,55.40
2022-08-24T14:49:20.699Z,55.35
2022-08-24T14:51:46.995Z,55.64
2022-08-24T14:54:13.321Z,55.06
2022-08-24T14:56:39.730Z,56.85
2022-08-24T14:59:06.031Z,55.88
2022-08-24T15:01:32.384Z,56.25
2022-08-24T15:03:58.767Z,57.43
2022-08-24T15:06:27.753Z,58.06
2022-08-24T15:08:55.721Z,57.48
2022-08-24T15:11:21.939Z,56.98
2022-08-24T15:13:48.244Z,56.40
2022-08-24T15:16:14.718Z,56.92
2022-08-24T15:18:41.091Z,57.42
2022-08-24T15:21:07.479Z,56.71
2022-08-24T15:23:33.808Z,56.84
2022-08-24T15:26:00.120Z,57.11
2022-08-24T15:28:28.958Z,56.55
2022-08-24T15:30:55.353Z,56.43
2022-08-24T15:33:21.751Z,56.45
2022-08-24T15:35:48.048Z,55.22
2022-08-24T15:38:14.554Z,55.36
2022-08-24T15:40:46.040Z,55.81
2022-08-24T15:43:12.537Z,55.34
2022-08-24T15:45:38.849Z,56.12
2022-08-24T15:48:05.545Z,57.43
2022-08-24T15:50:32.100Z,56.17
2022-08-24T15:52:58.396Z,55.61
2022-08-24T15:55:24.706Z,55.40
2022-08-24T15:57:50.995Z,55.69
2022-08-24T16:00:38.855Z,56.54
2022-08-24T16:03:07.752Z,56.48
2022-08-24T16:05:34.331Z,55.62
2022-08-24T16:08:00.638Z,56.78
2022-08-24T16:10:26.992Z,55.42
2022-08-24T16:12:54.889Z,54.96
2022-08-24T16:15:21.231Z,55.33
2022-08-24T16:17:51.061Z,54.89
2022-08-24T16:20:17.872Z,55.12
2022-08-24T16:22:45.715Z,55.55
2022-08-24T16:25:22.897Z,55.38
2022-08-24T16:27:49.195Z,56.00
2022-08-24T16:30:16.617Z,55.86
2022-08-24T16:32:53.527Z,56.47
2022-08-24T16:35:20.566Z,56.58
2022-08-24T16:37:46.819Z,57.06
2022-08-24T16:40:14.125Z,56.20
2022-08-24T16:42:40.650Z,56.81
2022-08-24T16:45:06.958Z,56.95
2022-08-24T16:47:33.267Z,57.02
2022-08-24T16:49:59.572Z,57.17
2022-08-24T16:52:25.872Z,57.27
2022-08-24T16:54:52.208Z,56.97
2022-08-24T16:57:18.545Z,57.00
2022-08-24T16:59:44.888Z,57.41
2022-08-24T17:02:11.640Z,57.10
2022-08-24T17:04:37.888Z,57.03
2022-08-24T17:07:04.226Z,56.96
2022-08-24T17:09:31.162Z,57.45
2022-08-24T17:11:57.478Z,57.13
2022-08-24T17:14:24.085Z,58.32
2022-08-24T17:16:50.492Z,58.87
2022-08-24T17:19:16.972Z,59.45
2022-08-24T17:21:43.375Z,59.73
2022-08-24T17:24:09.670Z,60.35
2022-08-24T17:26:36.246Z,59.70
2022-08-24T17:29:02.550Z,60.27
2022-08-24T17:31:30.899Z,60.09
2022-08-24T17:33:57.475Z,60.24
2022-08-24T17:36:23.903Z,60.57
2022-08-24T17:38:54.713Z,59.95
2022-08-24T17:41:21.765Z,60.68
2022-08-24T17:43:48.110Z,61.19
2022-08-24T17:46:14.529Z,60.50
2022-08-24T17:48:40.863Z,61.12
2022-08-24T17:51:07.308Z,61.50
2022-08-24T17:53:33.699Z,62.00
2022-08-24T17:56:00.061Z,60.69
2022-08-24T17:58:26.359Z,61.13
2022-08-24T18:00:52.758Z,61.63
2022-08-24T18:03:19.064Z,62.41
2022-08-24T18:05:45.762Z,62.43
2022-08-24T18:08:12.077Z,62.86
2022-08-24T18:10:38.372Z,63.31
2022-08-24T18:13:04.827Z,63.85
2022-08-24T18:15:35.405Z,64.01
2022-08-24T18:18:02.601Z,64.30
2022-08-24T18:20:29.864Z,64.81
2022-08-24T18:22:57.552Z,65.13
2022-08-24T18:25:24.535Z,65.42
2022-08-24T18:27:50.834Z,65.91
2022-08-24T18:30:17.133Z,66.35
2022-08-24T18:32:44.559Z,67.31
2022-08-24T18:35:10.853Z,67.31
2022-08-24T18:37:37.396Z,67.75
2022-08-24T18:40:03.709Z,67.92
2022-08-24T18:42:32.027Z,68.22
2022-08-24T18:44:58.343Z,68.29
2022-08-24T18:47:25.245Z,68.24
2022-08-24T18:49:51.569Z,68.66
2022-08-24T18:52:18.980Z,68.94
2022-08-24T18:54:46.590Z,69.38
2022-08-24T18:57:12.889Z,69.49
2022-08-24T18:59:40.803Z,70.26
2022-08-24T19:02:26.202Z,70.46
2022-08-24T19:04:52.672Z,70.55
2022-08-24T19:07:18.967Z,70.67
2022-08-24T19:09:45.257Z,71.06
2022-08-24T19:12:11.583Z,71.57
2022-08-24T19:14:37.916Z,71.59
2022-08-24T19:17:04.229Z,72.57
2022-08-24T19:19:30.529Z,72.85
2022-08-24T19:21:56.819Z,72.55
2022-08-24T19:24:23.114Z,73.48
2022-08-24T19:26:49.415Z,73.23
2022-08-24T19:29:21.477Z,73.08
2022-08-24T19:31:59.750Z,74.27
2022-08-24T19:34:26.090Z,74.42
2022-08-24T19:36:55.970Z,74.66
2022-08-24T19:39:22.925Z,75.30
2022-08-24T19:41:57.915Z,75.96
2022-08-24T19:44:47.373Z,75.69
2022-08-24T19:47:18.227Z,75.34
2022-08-24T19:49:45.496Z,75.08
2022-08-24T19:52:11.790Z,75.47
2022-08-24T19:54:38.153Z,75.53
2022-08-24T19:57:04.473Z,75.96
2022-08-24T19:59:30.780Z,75.53
2022-08-24T20:02:00.969Z,75.34
2022-08-24T20:04:27.292Z,75.33
2022-08-24T20:06:53.679Z,75.76
2022-08-24T20:09:23.461Z,75.77
2022-08-24T20:11:50.081Z,76.15
2022-08-24T20:14:16.416Z,76.60
2022-08-24T20:16:42.754Z,77.11
2022-08-24T20:19:09.099Z,76.89
2022-08-24T20:21:35.765Z,77.49
2022-08-24T20:24:02.390Z,77.26
2022-08-24T20:26:28.705Z,79.17
2022-08-24T20:28:55.040Z,78.67
2022-08-24T20:31:27.433Z,78.69
2022-08-24T20:33:55.004Z,78.56
2022-08-24T20:36:21.302Z,79.51
2022-08-24T20:38:47.772Z,78.87
2022-08-24T20:41:15.283Z,78.79
2022-08-24T20:43:41.594Z,79.11
2022-08-24T20:46:07.947Z,78.83
2022-08-24T20:48:34.284Z,78.23
2022-08-24T20:51:00.620Z,78.04
2022-08-24T20:53:26.980Z,77.90
2022-08-24T20:55:53.316Z,77.96
2022-08-24T20:58:19.651Z,78.41
2022-08-24T21:00:46.344Z,78.35
2022-08-24T21:03:16.009Z,78.07
2022-08-24T21:05:42.303Z,78.21
2022-08-24T21:08:08.633Z,79.25
2022-08-24T21:10:34.945Z,80.42
2022-08-24T21:13:01.445Z,79.59
2022-08-24T21:15:27.794Z,79.29
2022-08-24T21:17:54.098Z,79.26
2022-08-24T21:20:20.407Z,79.26
2022-08-24T21:22:46.728Z,79.31
2022-08-24T21:25:13.810Z,79.33
2022-08-24T21:27:40.109Z,79.03
2022-08-24T21:30:06.416Z,78.96
2022-08-24T21:32:51.351Z,79.08
2022-08-24T21:35:17.708Z,79.34
2022-08-24T21:37:44.012Z,79.32
2022-08-24T21:40:10.896Z,79.75
2022-08-24T21:42:37.253Z,79.79
2022-08-24T21:45:04.321Z,79.65
2022-08-24T21:47:30.687Z,79.85
2022-08-24T21:49:57.024Z,79.84
2022-08-24T21:52:24.163Z,80.04
2022-08-24T21:54:50.521Z,79.72
2022-08-24T21:57:16.826Z,80.18
2022-08-24T21:59:44.222Z,80.27
2022-08-24T22:02:10.761Z,80.26
2022-08-24T22:04:39.750Z,80.21
2022-08-24T22:07:06.048Z,80.04
2022-08-24T22:09:32.364Z,80.40
2022-08-24T22:11:59.843Z,80.87
2022-08-24T22:14:27.010Z,81.57
2022-08-24T22:16:53.315Z,81.21
2022-08-24T22:19:19.615Z,81.50
2022-08-24T22:21:47.842Z,81.20
2022-08-24T22:24:14.432Z,80.90
2022-08-24T22:26:40.745Z,81.27
2022-08-24T22:29:07.572Z,81.21
2022-08-24T22:31:33.938Z,81.51
2022-08-24T22:34:00.569Z,81.31
2022-08-24T22:36:27.261Z,81.14
2022-08-24T22:38:53.614Z,81.10
2022-08-24T22:41:21.720Z,81.72
2022-08-24T22:44:06.641Z,81.23
2022-08-24T22:46:32.981Z,81.38
2022-08-24T22:48:59.319Z,81.36
2022-08-24T22:51:25.645Z,81.41
2022-08-24T22:53:51.987Z,81.59
2022-08-24T22:56:18.297Z,81.41
2022-08-24T22:58:44.596Z,81.57
2022-08-24T23:01:10.929Z,82.13
2022-08-24T23:03:37.328Z,82.48
2022-08-24T23:06:03.671Z,82.03
2022-08-24T23:08:29.978Z,81.81
2022-08-24T23:10:57.352Z,81.77
2022-08-24T23:13:28.138Z,81.60
2022-08-24T23:15:55.040Z,82.05
2022-08-24T23:18:40.157Z,82.79
2022-08-24T23:21:06.467Z,82.34
2022-08-24T23:23:32.755Z,83.04
2022-08-24T23:26:00.283Z,82.85
2022-08-24T23:28:26.584Z,83.23
2022-08-24T23:30:52.945Z,83.49
2022-08-24T23:33:19.245Z,84.16
2022-08-24T23:35:45.565Z,84.04
2022-08-24T23:38:11.951Z,83.07
2022-08-24T23:40:38.265Z,83.61
2022-08-24T23:43:04.580Z,83.15
2022-08-24T23:45:31.656Z,83.48
2022-08-24T23:47:58.395Z,83.03
2022-08-24T23:50:24.696Z,82.67
2022-08-24T23:52:50.993Z,83.37
2022-08-24T23:55:21.146Z,84.11
2022-08-24T23:57:48.377Z,83.46
